Date,TemperatureHighF,TemperatureAvgF,TemperatureLowF,DewpointHighF,DewpointAvgF,DewpointLowF,HumidityHigh,HumidityAvg,HumidityLow,PressureMaxIn,PressureMinIn,WindSpeedMaxMPH,WindSpeedAvgMPH,GustSpeedMaxMPH,PrecipitationSumIn
2013-3-1,45.7,38.6,29.3,30.7,27.9,25.4,86,66,47,28.86,28.79,1,0,0,0.00
2013-3-2,48.6,37.8,30.9,36.2,26.4,16.0,87,65,39,28.89,28.76,4,0,2,0.00
2013-3-3,65.1,34.2,25.2,40.2,13.8,7.6,97,44,24,28.98,28.77,4,1,4,0.00
2013-3-4,57.0,41.0,24.4,24.8,14.9,8.6,61,37,20,29.04,28.87,2,0,2,0.00
2013-3-5,45.3,38.4,33.3,40.9,33.6,23.1,99,84,57,28.98,28.58,2,1,2,0.71
2013-3-6,52.2,37.7,31.3,46.8,23.6,17.8,99,58,34,29.05,28.58,14,2,14,0.01
2013-3-7,57.0,38.3,26.6,28.8,23.8,19.8,85,59,28,29.20,29.02,2,0,2,0.00
2013-3-8,58.5,39.0,21.7,28.3,22.1,18.5,87,56,23,29.25,29.09,2,0,2,0.00
2013-3-9,67.5,45.0,23.9,34.0,26.0,20.1,89,54,21,29.28,29.07,2,0,2,0.00
2013-3-10,70.2,50.9,33.4,38.9,34.0,29.7,88,57,25,29.24,29.02,6,0,2,0.00
2013-3-11,56.5,48.3,40.5,49.7,41.5,35.6,99,78,62,29.10,28.78,2,0,2,0.37
2013-3-12,65.5,52.7,37.8,50.8,41.4,30.7,99,70,31,28.91,28.70,4,0,4,0.48
2013-3-13,55.4,42.5,31.1,33.5,23.1,11.9,86,49,26,29.11,28.75,2,0,2,0.00
2013-3-14,57.2,40.2,29.1,21.8,14.0,7.7,59,36,21,29.21,29.02,12,1,12,0.00
2013-3-15,69.8,51.0,27.9,37.1,28.9,20.9,78,46,24,29.12,28.76,1,0,2,0.00
2013-3-16,86.0,64.0,42.3,48.9,42.9,36.7,89,53,23,28.80,28.51,1,0,2,0.00
2013-3-17,74.5,57.2,41.4,54.0,47.0,39.6,96,71,44,29.00,28.70,7,1,7,0.00
2013-3-18,41.4,38.5,36.5,40.3,37.9,35.7,99,98,92,29.07,28.79,6,1,6,0.30
2013-3-19,67.6,49.9,36.3,44.2,26.9,12.9,99,52,17,28.99,28.78,6,0,6,0.01
2013-3-20,64.8,45.3,28.2,43.4,18.1,8.8,98,38,17,29.06,28.68,2,0,2,0.00
2013-3-21,47.3,36.5,26.6,29.6,8.9,0.9,64,33,21,28.91,28.48,13,1,13,0.00
2013-3-22,58.5,38.1,19.2,26.8,15.9,8.7,78,45,21,29.01,28.82,4,0,4,0.00
2013-3-23,62.2,46.0,32.7,36.7,29.3,20.5,77,55,26,28.99,28.75,48,1,24,0.00
2013-3-24,47.5,41.6,36.5,42.8,39.3,25.7,99,92,62,28.87,28.50,4,1,4,0.71
2013-3-25,48.4,39.2,34.2,35.7,29.3,22.0,97,71,41,28.83,28.49,2,0,2,0.02
2013-3-26,50.9,38.7,28.2,28.0,23.1,20.7,81,55,36,29.11,28.72,2,0,2,0.00
2013-3-27,52.0,38.9,-11.7,26.4,21.6,-86.7,77,52,1,29.20,29.09,30,0,30,0.00
2013-3-28,57.0,40.2,23.9,28.2,20.8,16.2,85,52,23,29.22,29.05,24,0,24,0.00
2013-3-29,91.0,44.9,24.1,34.6,25.5,-22.6,86,54,1,29.27,29.07,15,0,15,0.00
2013-3-30,69.6,52.2,23.2,41.8,32.0,19.1,84,50,25,29.17,28.90,1,0,0,0.00
2013-3-31,71.4,55.8,47.5,55.6,49.6,41.3,99,82,52,28.93,28.66,2,0,2,0.22